Time;durP1;ratioP1;P1;durP2;ratioP2;P2;SDS_P1;SDS_P2;PMS_P1;PMS_P2;Temp;Humidity;BMP_temperature;BMP_pressure;BME280_temperature;BME280_humidity;BME280_pressure;Samples;Min_cycle;Max_cycle;Signal;HPM_P1;HPM_P2
2023/07/27 00:02:10;;;;;;;5.93;4.40;;;19.00;58.90;;;;;;5053409;28;20203;-44
2023/07/27 00:04:35;;;;;;;3.57;3.27;;;19.00;58.60;;;;;;5053881;28;20439;-44
2023/07/27 00:07:01;;;;;;;6.13;3.50;;;18.90;58.70;;;;;;5051514;28;20195;-44
2023/07/27 00:09:26;;;;;;;4.90;3.83;;;18.80;59.00;;;;;;5053510;28;20200;-44
2023/07/27 00:11:52;;;;;;;6.57;4.10;;;18.80;58.90;;;;;;5053069;28;20662;-44
2023/07/27 00:14:17;;;;;;;3.50;3.20;;;18.70;59.20;;;;;;5053396;28;20236;-44
2023/07/27 00:16:43;;;;;;;4.73;3.50;;;18.50;59.80;;;;;;5052704;28;20218;-44
2023/07/27 00:19:09;;;;;;;8.13;3.70;;;18.40;60.10;;;;;;5052893;28;20631;-44
2023/07/27 00:21:34;;;;;;;4.87;3.67;;;18.50;60.20;;;;;;5052829;28;20215;-44
2023/07/27 00:24:00;;;;;;;3.70;3.40;;;18.60;60.00;;;;;;5053600;28;20196;-45
2023/07/27 00:26:25;;;;;;;3.97;3.50;;;18.70;59.70;;;;;;5052932;28;20245;-44
2023/07/27 00:28:51;;;;;;;6.13;3.73;;;18.60;59.70;;;;;;5052825;28;20279;-44
2023/07/27 00:31:16;;;;;;;3.97;3.63;;;18.60;59.90;;;;;;5052609;28;20200;-44
2023/07/27 00:33:42;;;;;;;4.13;3.83;;;18.60;60.10;;;;;;5032604;28;20211;-44
2023/07/27 00:36:08;;;;;;;4.73;3.43;;;18.50;59.80;;;;;;5031682;28;20276;-43
2023/07/27 00:38:33;;;;;;;4.50;3.67;;;18.40;60.40;;;;;;5032256;28;20213;-43
2023/07/27 00:40:59;;;;;;;5.13;3.47;;;18.50;60.40;;;;;;5032632;28;20196;-44
2023/07/27 00:43:24;;;;;;;4.00;3.53;;;18.50;60.10;;;;;;5033002;28;20185;-43
2023/07/27 00:45:50;;;;;;;3.57;3.27;;;18.50;59.90;;;;;;5031753;28;20193;-45
2023/07/27 00:48:17;;;;;;;4.53;3.67;;;18.40;60.30;;;;;;5032217;28;20189;-44
2023/07/27 00:50:42;;;;;;;4.27;3.50;;;18.30;61.00;;;;;;5046359;28;20780;-44
2023/07/27 00:53:09;;;;;;;4.27;3.83;;;18.20;61.30;;;;;;5052736;28;20506;-44
2023/07/27 00:55:35;;;;;;;3.80;3.50;;;18.30;61.00;;;;;;5051920;28;20188;-44
2023/07/27 00:58:01;;;;;;;5.33;3.40;;;18.00;61.70;;;;;;5052542;28;20459;-44
2023/07/27 01:00:27;;;;;;;4.60;3.57;;;18.10;61.80;;;;;;5052087;28;20486;-43
2023/07/27 01:02:53;;;;;;;4.50;3.70;;;18.00;61.90;;;;;;5051111;28;20431;-44
2023/07/27 01:05:19;;;;;;;3.50;3.20;;;17.90;61.90;;;;;;5051963;28;20433;-44
2023/07/27 01:07:45;;;;;;;4.60;3.60;;;17.50;63.30;;;;;;5052215;28;20419;-44
2023/07/27 01:10:11;;;;;;;3.67;3.37;;;17.50;63.50;;;;;;5051909;28;20189;-44
2023/07/27 01:13:11;;;;;;;3.63;3.30;;;17.70;63.00;;;;;;5052019;28;20556;-44
2023/07/27 01:15:44;;;;;;;4.37;3.57;;;17.90;62.80;;;;;;5031638;28;20956;-44
2023/07/27 01:18:22;;;;;;;4.23;3.77;;;17.80;62.30;;;;;;5051899;28;20861;-43
2023/07/27 01:21:16;;;;;;;4.00;3.67;;;17.70;63.30;;;;;;5051418;28;20435;-44
2023/07/27 01:24:08;;;;;;;4.00;3.40;;;17.50;63.60;;;;;;5052210;28;20431;-44
2023/07/27 01:26:34;;;;;;;5.13;3.20;;;17.60;63.70;;;;;;5051600;28;20438;-44
2023/07/27 01:29:31;;;;;;;4.63;2.90;;;17.60;63.60;;;;;;5050211;28;20431;-44
2023/07/27 01:31:57;;;;;;;3.40;3.10;;;17.80;63.00;;;;;;5051325;28;20630;-45
2023/07/27 01:34:31;;;;;;;3.90;3.60;;;17.70;62.90;;;;;;5052182;28;20518;-44
2023/07/27 01:37:04;;;;;;;4.40;3.70;;;17.60;63.20;;;;;;5051388;28;20196;-44
2023/07/27 01:39:34;;;;;;;5.67;3.53;;;17.70;63.70;;;;;;5051334;28;20486;-44
2023/07/27 01:42:01;;;;;;;3.30;3.00;;;17.60;63.20;;;;;;5051166;28;20926;-44
2023/07/27 01:44:29;;;;;;;11.23;3.63;;;17.40;64.20;;;;;;5052193;28;20435;-44
2023/07/27 01:46:57;;;;;;;4.90;3.83;;;17.50;64.30;;;;;;5051594;28;20506;-44
2023/07/27 01:49:24;;;;;;;4.57;3.80;;;17.40;64.60;;;;;;5051470;28;20465;-44
2023/07/27 01:51:50;;;;;;;5.33;3.93;;;17.30;64.80;;;;;;5051138;28;20833;-44
2023/07/27 01:54:16;;;;;;;3.90;3.60;;;17.40;64.30;;;;;;5051543;28;20468;-44
2023/07/27 01:56:44;;;;;;;3.93;3.53;;;17.60;63.80;;;;;;5049368;28;20435;-44
2023/07/27 01:59:10;;;;;;;6.40;3.63;;;17.60;63.90;;;;;;5050884;28;20489;-43
2023/07/27 02:01:37;;;;;;;4.00;3.20;;;17.30;63.70;;;;;;5050998;28;20427;-44
2023/07/27 02:04:04;;;;;;;3.70;3.40;;;17.30;64.10;;;;;;5051313;28;20434;-44
2023/07/27 02:06:30;;;;;;;3.77;3.10;;;17.50;63.50;;;;;;5051081;28;21529;-44
2023/07/27 02:08:55;;;;;;;3.17;2.77;;;17.60;62.90;;;;;;5050863;28;20427;-44
2023/07/27 02:11:23;;;;;;;3.90;3.60;;;17.30;64.30;;;;;;5050785;28;20271;-43
2023/07/27 02:14:00;;;;;;;5.00;3.30;;;17.40;64.30;;;;;;5051230;28;20334;-43
2023/07/27 02:16:45;;;;;;;3.77;3.47;;;17.30;63.90;;;;;;5050767;28;20592;-44
2023/07/27 02:19:14;;;;;;;3.90;3.50;;;17.30;63.90;;;;;;5051080;28;20524;-44
2023/07/27 02:21:40;;;;;;;5.57;3.27;;;17.30;63.40;;;;;;5049166;28;20435;-44
2023/07/27 02:24:07;;;;;;;8.10;4.10;;;17.40;63.30;;;;;;5033627;28;20439;-44
2023/07/27 02:26:33;;;;;;;4.13;3.73;;;17.50;63.10;;;;;;5050555;28;20793;-44
2023/07/27 02:28:59;;;;;;;3.73;3.10;;;17.60;62.50;;;;;;5050529;28;20423;-45
2023/07/27 02:31:24;;;;;;;3.67;3.37;;;17.60;62.20;;;;;;5050538;28;20435;-47
2023/07/27 02:33:50;;;;;;;4.73;4.30;;;17.60;61.90;;;;;;5051282;28;20188;-46
2023/07/27 02:36:16;;;;;;;4.47;3.33;;;17.40;62.80;;;;;;5050666;28;20196;-49
2023/07/27 02:38:42;;;;;;;4.00;3.60;;;17.70;62.50;;;;;;5050518;28;20578;-46
2023/07/27 02:41:10;;;;;;;3.47;3.17;;;17.60;62.20;;;;;;5050739;28;20208;-48
2023/07/27 02:43:35;;;;;;;4.40;4.00;;;17.50;62.40;;;;;;5051035;28;20599;-47
2023/07/27 02:46:01;;;;;;;7.00;3.40;;;17.40;63.20;;;;;;5049152;28;20439;-48
2023/07/27 02:48:27;;;;;;;4.57;3.40;;;17.30;63.20;;;;;;5049906;28;20235;-50
2023/07/27 02:50:53;;;;;;;3.37;3.07;;;17.20;63.80;;;;;;5049671;28;20189;-49
2023/07/27 02:53:18;;;;;;;3.70;3.40;;;17.20;64.00;;;;;;5051207;28;20238;-46
2023/07/27 02:55:55;;;;;;;3.83;3.13;;;17.10;64.40;;;;;;5050407;28;20192;-49
2023/07/27 02:58:21;;;;;;;3.77;3.30;;;17.30;64.00;;;;;;5050539;28;20852;-48
2023/07/27 03:00:53;;;;;;;3.53;3.23;;;17.20;63.50;;;;;;5049958;28;20435;-48
2023/07/27 03:03:19;;;;;;;3.77;3.37;;;17.10;64.80;;;;;;5050818;28;20185;-49
2023/07/27 03:05:44;;;;;;;3.60;3.30;;;17.10;64.30;;;;;;5050087;28;20461;-46
2023/07/27 03:08:10;;;;;;;4.47;3.87;;;17.20;64.20;;;;;;5052326;28;20196;-47
2023/07/27 03:10:36;;;;;;;4.13;3.80;;;17.30;63.70;;;;;;5054078;28;20194;-47
2023/07/27 03:13:02;;;;;;;3.77;3.40;;;17.40;63.20;;;;;;5054962;28;20286;-48
2023/07/27 03:15:27;;;;;;;3.40;3.03;;;17.60;62.50;;;;;;5052499;28;21084;-48
2023/07/27 03:17:53;;;;;;;4.63;3.73;;;17.50;62.00;;;;;;5054254;28;20287;-45
2023/07/27 03:20:18;;;;;;;4.20;3.20;;;17.60;62.20;;;;;;5053692;28;20228;-44
2023/07/27 03:22:44;;;;;;;3.33;2.73;;;17.60;62.20;;;;;;5054519;28;20199;-48
2023/07/27 03:25:09;;;;;;;3.57;3.27;;;17.40;61.80;;;;;;5053763;28;20615;-48
2023/07/27 03:27:35;;;;;;;4.13;3.40;;;17.50;61.90;;;;;;5054044;28;20554;-48
2023/07/27 03:30:00;;;;;;;3.40;3.10;;;17.50;61.90;;;;;;5053860;28;20558;-46
2023/07/27 03:32:26;;;;;;;3.63;3.30;;;17.50;62.00;;;;;;5054550;28;20200;-48
2023/07/27 03:34:51;;;;;;;5.80;3.57;;;17.40;62.60;;;;;;5053699;28;20201;-49
2023/07/27 03:37:17;;;;;;;3.67;3.37;;;17.40;63.10;;;;;;5053625;28;20197;-47
2023/07/27 03:39:42;;;;;;;4.70;3.30;;;17.10;64.10;;;;;;5054031;28;20306;-48
2023/07/27 03:42:08;;;;;;;4.33;3.73;;;16.90;65.00;;;;;;5053325;28;20196;-49
2023/07/27 03:44:34;;;;;;;3.80;3.50;;;17.00;65.50;;;;;;5052807;28;20195;-49
2023/07/27 03:46:59;;;;;;;3.23;2.93;;;17.00;65.40;;;;;;5053314;28;20647;-47
2023/07/27 03:49:25;;;;;;;3.17;2.70;;;16.90;65.70;;;;;;5053548;28;20196;-48
2023/07/27 03:51:50;;;;;;;3.67;3.33;;;17.00;65.70;;;;;;5053518;28;20192;-47
2023/07/27 03:54:16;;;;;;;4.50;3.90;;;17.20;65.20;;;;;;5053764;28;20235;-47
2023/07/27 03:56:41;;;;;;;3.37;3.07;;;17.30;64.90;;;;;;5053398;28;20192;-48
2023/07/27 03:59:13;;;;;;;3.80;3.23;;;17.30;64.60;;;;;;5053628;28;20236;-48
2023/07/27 04:01:41;;;;;;;3.27;2.97;;;17.50;64.10;;;;;;5053510;28;20713;-45
2023/07/27 04:04:10;;;;;;;4.83;3.70;;;17.40;64.10;;;;;;5053815;28;20538;-48
2023/07/27 04:06:36;;;;;;;4.10;3.60;;;17.20;65.30;;;;;;5053211;28;20477;-44
2023/07/27 04:09:02;;;;;;;4.97;3.97;;;17.30;65.70;;;;;;5053292;28;20463;-48
2023/07/27 04:11:27;;;;;;;5.97;3.77;;;17.50;64.80;;;;;;5052209;28;20200;-48
2023/07/27 04:13:53;;;;;;;4.20;3.80;;;17.50;64.00;;;;;;5053333;28;20240;-47
2023/07/27 04:16:18;;;;;;;4.57;4.17;;;17.10;65.70;;;;;;5052942;28;20192;-48
2023/07/27 04:18:44;;;;;;;3.90;3.50;;;17.00;66.60;;;;;;5052551;28;20235;-45
2023/07/27 04:21:09;;;;;;;5.90;3.70;;;17.10;66.40;;;;;;5052550;28;20326;-48
2023/07/27 04:23:35;;;;;;;4.10;3.70;;;17.10;66.50;;;;;;5053696;28;20185;-47
2023/07/27 04:26:02;;;;;;;4.20;3.50;;;17.20;65.70;;;;;;5052967;28;20279;-49
2023/07/27 04:28:28;;;;;;;4.87;3.70;;;17.20;65.50;;;;;;5053248;28;20193;-48
2023/07/27 04:30:53;;;;;;;3.93;3.37;;;17.00;66.60;;;;;;5052923;28;20433;-49
2023/07/27 04:33:19;;;;;;;5.10;4.00;;;17.00;66.90;;;;;;5053351;28;20193;-48
2023/07/27 04:35:45;;;;;;;5.60;3.77;;;16.80;66.90;;;;;;5052613;28;20200;-46
2023/07/27 04:38:10;;;;;;;6.80;3.97;;;16.30;69.50;;;;;;5051779;28;20200;-47
2023/07/27 04:40:36;;;;;;;4.10;3.70;;;16.40;69.90;;;;;;5052561;28;20311;-47
2023/07/27 04:43:01;;;;;;;4.07;3.77;;;16.60;69.20;;;;;;5053185;28;20663;-47
2023/07/27 04:45:27;;;;;;;3.80;3.10;;;17.00;67.70;;;;;;5052946;28;20673;-47
2023/07/27 04:47:52;;;;;;;5.20;3.90;;;17.30;66.40;;;;;;5052834;28;20199;-44
2023/07/27 04:50:18;;;;;;;3.57;3.27;;;17.40;65.20;;;;;;5052272;28;20610;-48
2023/07/27 04:52:43;;;;;;;5.97;3.50;;;17.40;65.20;;;;;;5053084;28;20196;-49
2023/07/27 04:55:09;;;;;;;4.07;3.67;;;17.40;65.30;;;;;;5052550;28;20199;-47
2023/07/27 04:57:34;;;;;;;6.83;3.20;;;17.50;64.70;;;;;;5051289;28;20232;-48
2023/07/27 05:00:00;;;;;;;6.23;4.63;;;17.60;64.20;;;;;;5052404;28;20220;-44
2023/07/27 05:02:25;;;;;;;7.80;3.70;;;17.60;63.90;;;;;;5052581;28;20247;-48
2023/07/27 05:04:51;;;;;;;4.80;4.23;;;17.40;64.50;;;;;;5050688;28;20195;-46
2023/07/27 05:07:18;;;;;;;5.87;4.33;;;17.30;65.30;;;;;;5052409;28;20558;-47
2023/07/27 05:09:44;;;;;;;4.00;3.53;;;17.30;65.40;;;;;;5052466;28;20267;-46
2023/07/27 05:12:10;;;;;;;3.90;3.50;;;17.20;65.70;;;;;;5052158;28;20494;-45
2023/07/27 05:14:35;;;;;;;4.23;3.83;;;17.40;65.50;;;;;;5052664;28;20237;-49
2023/07/27 05:17:01;;;;;;;3.80;3.43;;;17.50;65.00;;;;;;5051465;28;20184;-44
2023/07/27 05:19:26;;;;;;;3.37;3.07;;;17.50;65.00;;;;;;5052812;28;20281;-47
2023/07/27 05:21:52;;;;;;;4.17;3.77;;;17.60;64.80;;;;;;5051658;28;20283;-44
2023/07/27 05:24:17;;;;;;;4.77;4.37;;;17.90;64.20;;;;;;5052373;28;20282;-44
2023/07/27 05:26:43;;;;;;;3.77;3.47;;;18.10;63.40;;;;;;5051725;28;20192;-47
2023/07/27 05:29:08;;;;;;;3.70;3.30;;;18.20;62.70;;;;;;5051889;28;20250;-44
2023/07/27 05:31:34;;;;;;;3.30;2.97;;;18.30;62.30;;;;;;5049611;28;20547;-49
2023/07/27 05:34:00;;;;;;;4.07;3.43;;;18.40;62.00;;;;;;5052235;28;20280;-47
2023/07/27 05:36:25;;;;;;;5.70;2.80;;;18.50;61.80;;;;;;5051798;28;20249;-49
2023/07/27 05:38:51;;;;;;;5.40;3.60;;;18.40;61.50;;;;;;5051622;28;20245;-45
2023/07/27 05:41:16;;;;;;;3.57;3.27;;;18.20;62.30;;;;;;5051291;28;20642;-44
2023/07/27 05:43:42;;;;;;;3.53;3.17;;;18.20;62.70;;;;;;5052171;28;20189;-46
2023/07/27 05:46:07;;;;;;;2.90;2.70;;;18.10;62.50;;;;;;5051292;28;20299;-48
2023/07/27 05:48:34;;;;;;;3.33;2.97;;;18.10;62.70;;;;;;5051367;28;20188;-44
2023/07/27 05:50:59;;;;;;;3.27;2.67;;;18.20;61.90;;;;;;5051029;28;20200;-44
2023/07/27 05:53:25;;;;;;;4.10;3.20;;;17.90;61.90;;;;;;5051956;28;20431;-45
2023/07/27 05:55:50;;;;;;;4.10;3.30;;;17.90;62.80;;;;;;5051286;28;20555;-47
2023/07/27 05:58:16;;;;;;;6.57;2.90;;;17.80;62.80;;;;;;5049625;28;20295;-49
2023/07/27 06:00:42;;;;;;;2.90;2.67;;;17.70;63.40;;;;;;5051170;28;20644;-44
2023/07/27 06:03:07;;;;;;;2.53;2.33;;;17.90;62.90;;;;;;5051930;28;20203;-44
2023/07/27 06:05:33;;;;;;;4.97;3.23;;;18.30;61.80;;;;;;5051170;28;20188;-46
2023/07/27 06:07:58;;;;;;;3.50;2.60;;;18.60;60.50;;;;;;5051126;28;20230;-48
2023/07/27 06:10:24;;;;;;;2.77;2.57;;;19.00;59.80;;;;;;5051136;28;20200;-44
2023/07/27 06:12:49;;;;;;;2.40;2.20;;;19.00;59.00;;;;;;5051547;28;20201;-44
2023/07/27 06:15:15;;;;;;;2.57;2.37;;;18.90;58.80;;;;;;5050988;28;20236;-44
2023/07/27 06:17:40;;;;;;;2.40;2.20;;;19.20;58.50;;;;;;5051180;28;20632;-44
2023/07/27 06:20:07;;;;;;;2.90;2.60;;;19.30;58.90;;;;;;5050888;28;20236;-47
2023/07/27 06:22:33;;;;;;;3.00;2.63;;;19.40;59.00;;;;;;5051470;28;20204;-45
2023/07/27 06:24:59;;;;;;;3.00;2.80;;;19.60;58.60;;;;;;5049358;28;20423;-44
2023/07/27 06:27:24;;;;;;;4.10;2.63;;;19.80;57.80;;;;;;5051219;28;20276;-47
2023/07/27 06:29:50;;;;;;;7.10;2.60;;;19.90;58.20;;;;;;5050588;28;20192;-45
2023/07/27 06:32:15;;;;;;;2.50;2.30;;;19.80;57.70;;;;;;5051414;28;20219;-46
2023/07/27 06:34:41;;;;;;;2.80;2.60;;;19.90;58.10;;;;;;5051220;28;20206;-47
2023/07/27 06:37:07;;;;;;;3.50;2.60;;;19.90;57.90;;;;;;5050275;28;20196;-44
2023/07/27 06:39:33;;;;;;;3.40;3.07;;;19.90;57.50;;;;;;5051351;28;20220;-44
2023/07/27 06:41:58;;;;;;;2.60;2.40;;;20.10;57.50;;;;;;5050887;28;20192;-49
2023/07/27 06:44:24;;;;;;;3.83;2.97;;;20.10;57.50;;;;;;5055340;28;20427;-49
2023/07/27 06:46:49;;;;;;;2.40;2.20;;;20.00;57.50;;;;;;5054707;28;20189;-44
2023/07/27 06:49:15;;;;;;;3.13;2.50;;;20.30;57.50;;;;;;5055013;28;20196;-44
2023/07/27 06:51:40;;;;;;;2.57;2.37;;;20.60;57.30;;;;;;5053362;28;20196;-44
2023/07/27 06:54:06;;;;;;;5.17;3.10;;;20.90;57.00;;;;;;5055114;28;20656;-47
2023/07/27 06:56:31;;;;;;;4.10;2.50;;;21.10;56.90;;;;;;5054762;28;20659;-47
2023/07/27 06:58:57;;;;;;;3.30;2.80;;;21.10;56.50;;;;;;5054809;28;20228;-45
2023/07/27 07:01:23;;;;;;;2.63;2.43;;;21.20;56.00;;;;;;5054717;28;20247;-44
2023/07/27 07:03:48;;;;;;;3.70;2.53;;;21.20;55.50;;;;;;5055011;28;20663;-46
2023/07/27 07:06:14;;;;;;;3.80;2.60;;;21.40;55.30;;;;;;5054468;28;20583;-47
2023/07/27 07:08:39;;;;;;;2.50;2.20;;;21.50;55.10;;;;;;5053196;28;20204;-48
2023/07/27 07:11:05;;;;;;;4.80;2.67;;;21.60;55.00;;;;;;5054034;28;20220;-44
2023/07/27 07:13:31;;;;;;;3.20;2.37;;;21.70;54.70;;;;;;5054552;28;20278;-45
2023/07/27 07:15:56;;;;;;;3.00;2.70;;;21.60;53.90;;;;;;5054532;28;20202;-46
2023/07/27 07:18:22;;;;;;;2.57;2.33;;;21.60;54.00;;;;;;5052781;28;20232;-46
2023/07/27 07:20:49;;;;;;;2.70;2.20;;;21.50;54.20;;;;;;5054097;28;20204;-44
2023/07/27 07:23:14;;;;;;;3.27;2.33;;;21.60;54.10;;;;;;5054687;28;20279;-45
2023/07/27 07:25:40;;;;;;;2.10;1.90;;;21.60;53.60;;;;;;5054360;28;20514;-44
2023/07/27 07:28:06;;;;;;;6.30;2.20;;;21.60;53.70;;;;;;5054003;28;20240;-44
2023/07/27 07:30:32;;;;;;;4.53;2.00;;;21.40;53.80;;;;;;5052815;28;20208;-46
2023/07/27 07:32:57;;;;;;;3.60;2.63;;;21.50;53.80;;;;;;5054767;28;20427;-44
2023/07/27 07:35:23;;;;;;;3.63;2.10;;;21.70;53.80;;;;;;5054326;28;20220;-45
2023/07/27 07:37:49;;;;;;;2.60;2.40;;;21.70;53.60;;;;;;5054038;28;20196;-44
2023/07/27 07:40:16;;;;;;;3.80;2.93;;;21.70;53.50;;;;;;5054206;28;20635;-45
2023/07/27 07:42:42;;;;;;;2.70;2.50;;;21.80;53.80;;;;;;5054322;28;20204;-44
2023/07/27 07:45:08;;;;;;;3.00;2.70;;;21.80;53.80;;;;;;5052138;28;20427;-44
2023/07/27 07:47:34;;;;;;;2.83;2.63;;;21.80;53.80;;;;;;5053634;28;20247;-44
2023/07/27 07:49:59;;;;;;;4.17;3.33;;;21.90;53.90;;;;;;5053706;28;20886;-44
2023/07/27 07:52:25;;;;;;;2.97;2.63;;;22.00;53.80;;;;;;5054440;28;20224;-46
2023/07/27 07:54:50;;;;;;;2.60;2.40;;;22.10;53.90;;;;;;5053360;28;20641;-44
2023/07/27 07:57:19;;;;;;;5.73;2.83;;;22.20;54.00;;;;;;5053636;28;20207;-44
2023/07/27 07:59:45;;;;;;;4.70;2.83;;;22.20;53.70;;;;;;5053594;28;20374;-45
2023/07/27 08:02:11;;;;;;;3.17;2.43;;;22.20;53.80;;;;;;5053846;28;20977;-44
2023/07/27 08:04:37;;;;;;;2.50;2.23;;;22.20;54.10;;;;;;5054004;28;20655;-44
2023/07/27 08:07:03;;;;;;;4.87;2.70;;;22.30;53.90;;;;;;5052736;28;20435;-45
2023/07/27 08:09:28;;;;;;;3.37;2.40;;;22.30;53.90;;;;;;5053827;28;20204;-44
2023/07/27 08:11:54;;;;;;;3.20;2.40;;;22.30;53.90;;;;;;5051348;28;20237;-45
2023/07/27 08:14:20;;;;;;;2.50;2.30;;;22.50;54.20;;;;;;5053709;28;20676;-49
2023/07/27 08:16:46;;;;;;;5.23;2.87;;;22.50;54.40;;;;;;5053148;28;20531;-44
2023/07/27 08:19:12;;;;;;;2.93;2.63;;;22.40;54.80;;;;;;5053491;28;20216;-44
2023/07/27 08:21:37;;;;;;;2.87;2.37;;;22.40;55.20;;;;;;5052955;28;20434;-45
2023/07/27 08:24:05;;;;;;;2.73;2.50;;;22.40;55.40;;;;;;5053709;28;20192;-44
2023/07/27 08:26:31;;;;;;;3.03;2.73;;;22.40;55.30;;;;;;5053027;28;20640;-44
2023/07/27 08:28:57;;;;;;;2.57;2.30;;;22.40;55.40;;;;;;5053181;28;20481;-47
2023/07/27 08:31:22;;;;;;;4.13;2.63;;;22.50;55.80;;;;;;5052812;28;20295;-44
2023/07/27 08:33:48;;;;;;;5.10;3.13;;;22.60;55.80;;;;;;5053467;28;20510;-44
2023/07/27 08:36:13;;;;;;;3.10;2.50;;;22.60;56.10;;;;;;5051330;28;20192;-44
2023/07/27 08:38:39;;;;;;;3.80;2.93;;;22.70;56.30;;;;;;5051141;28;20417;-45
2023/07/27 08:41:04;;;;;;;2.73;2.53;;;22.60;55.30;;;;;;5052591;28;20189;-46
2023/07/27 08:43:30;;;;;;;4.40;3.07;;;22.60;55.30;;;;;;5053230;28;20201;-44
2023/07/27 08:45:56;;;;;;;3.20;2.80;;;22.60;54.70;;;;;;5052760;28;20188;-44
2023/07/27 08:48:24;;;;;;;3.07;2.53;;;22.60;54.80;;;;;;5052593;28;20189;-44
2023/07/27 08:50:51;;;;;;;2.90;2.30;;;22.70;54.70;;;;;;5052339;28;20185;-44
2023/07/27 08:53:17;;;;;;;4.07;2.97;;;22.80;54.80;;;;;;5053037;28;20869;-44
2023/07/27 08:55:43;;;;;;;2.40;2.00;;;22.90;54.70;;;;;;5052250;28;20416;-44
2023/07/27 08:58:10;;;;;;;3.53;2.50;;;22.70;54.20;;;;;;5052603;28;20423;-44
2023/07/27 09:00:37;;;;;;;9.17;2.77;;;22.60;54.50;;;;;;5051959;28;20274;-44
2023/07/27 09:03:04;;;;;;;2.87;2.57;;;22.50;54.80;;;;;;5053376;28;20430;-44
2023/07/27 09:05:44;;;;;;;4.53;2.43;;;22.50;55.30;;;;;;5049951;28;20427;-44
2023/07/27 09:08:13;;;;;;;2.83;2.63;;;22.60;55.10;;;;;;5052719;28;20433;-45
2023/07/27 09:10:41;;;;;;;2.73;2.53;;;22.70;55.10;;;;;;5051875;28;20474;-44
2023/07/27 09:13:07;;;;;;;3.70;2.20;;;22.70;54.90;;;;;;5052497;28;20854;-44
2023/07/27 09:15:34;;;;;;;2.50;2.30;;;22.90;54.70;;;;;;5051987;28;20482;-48
2023/07/27 09:18:01;;;;;;;2.87;2.33;;;22.90;54.10;;;;;;5051809;28;20771;-48
2023/07/27 09:20:30;;;;;;;2.50;2.33;;;22.80;54.60;;;;;;5051924;28;20487;-46
2023/07/27 09:22:59;;;;;;;4.47;2.53;;;22.90;54.70;;;;;;5052761;28;20421;-45
2023/07/27 09:25:24;;;;;;;6.10;2.37;;;23.00;55.40;;;;;;5051870;28;20505;-45
2023/07/27 09:27:55;;;;;;;3.30;3.00;;;23.00;55.50;;;;;;5051629;28;20837;-45
2023/07/27 09:30:24;;;;;;;3.40;3.10;;;23.10;55.40;;;;;;5051648;28;20197;-46
2023/07/27 09:32:51;;;;;;;4.13;2.77;;;23.10;55.50;;;;;;5050640;28;20910;-45
2023/07/27 09:35:19;;;;;;;3.70;2.70;;;23.00;55.90;;;;;;5051333;28;20434;-45
2023/07/27 09:37:47;;;;;;;2.70;2.50;;;23.10;55.90;;;;;;5051858;28;20427;-45
2023/07/27 09:40:16;;;;;;;5.60;3.03;;;23.10;56.40;;;;;;5051463;28;20478;-45
2023/07/27 09:42:43;;;;;;;3.63;2.80;;;23.10;56.30;;;;;;5051700;28;20442;-45
2023/07/27 09:45:09;;;;;;;4.30;2.73;;;23.10;56.20;;;;;;5051337;28;20988;-48
2023/07/27 09:47:35;;;;;;;5.40;3.00;;;23.10;56.90;;;;;;5051556;28;20454;-45
2023/07/27 09:50:02;;;;;;;8.63;3.30;;;23.10;57.50;;;;;;5051239;28;20902;-44
2023/07/27 09:52:29;;;;;;;5.70;3.13;;;23.10;57.60;;;;;;5051813;28;20220;-49
2023/07/27 09:54:57;;;;;;;3.93;2.77;;;23.10;57.60;;;;;;5051530;28;20437;-46
2023/07/27 09:57:22;;;;;;;5.97;3.20;;;23.10;58.10;;;;;;5051330;28;20922;-45
2023/07/27 09:59:49;;;;;;;5.17;3.07;;;23.00;58.60;;;;;;5049582;28;20482;-45
2023/07/27 10:02:14;;;;;;;4.03;3.13;;;23.00;58.40;;;;;;5051708;28;20588;-48
2023/07/27 10:04:46;;;;;;;3.33;3.03;;;23.10;58.60;;;;;;5051872;28;20486;-45
2023/07/27 10:07:12;;;;;;;4.37;2.90;;;23.20;58.90;;;;;;5051215;28;20280;-45
2023/07/27 10:09:38;;;;;;;5.07;2.70;;;23.20;60.60;;;;;;5051741;28;20968;-45
2023/07/27 10:12:04;;;;;;;4.10;2.83;;;23.10;61.60;;;;;;5050866;28;20461;-44
2023/07/27 10:14:31;;;;;;;4.17;3.30;;;23.10;61.80;;;;;;5051728;28;20301;-45
2023/07/27 10:17:01;;;;;;;3.80;3.40;;;23.00;62.80;;;;;;5049796;28;20430;-45
2023/07/27 10:19:39;;;;;;;3.53;3.23;;;22.70;63.00;;;;;;5051718;28;20489;-44
2023/07/27 10:22:16;;;;;;;6.97;3.70;;;22.70;63.80;;;;;;5050875;28;20442;-44
2023/07/27 10:24:58;;;;;;;3.00;2.60;;;22.60;63.80;;;;;;5051396;28;20434;-46
2023/07/27 10:27:24;;;;;;;2.93;2.63;;;22.60;62.50;;;;;;5049697;28;20423;-44
2023/07/27 10:30:08;;;;;;;3.30;3.00;;;22.50;63.70;;;;;;5050898;28;20423;-44
2023/07/27 10:32:35;;;;;;;3.13;2.80;;;22.80;63.10;;;;;;5051345;28;20845;-45
2023/07/27 10:35:06;;;;;;;5.73;2.87;;;23.00;62.50;;;;;;5050614;28;20424;-45
2023/07/27 10:37:52;;;;;;;4.80;2.70;;;23.00;61.90;;;;;;5051005;28;20902;-46
2023/07/27 10:40:25;;;;;;;7.80;3.23;;;23.00;62.30;;;;;;5050686;28;20577;-46
2023/07/27 10:42:58;;;;;;;3.23;2.83;;;23.10;61.90;;;;;;5051191;28;20523;-45
2023/07/27 10:45:27;;;;;;;3.27;2.97;;;23.10;61.60;;;;;;5050643;28;20809;-46
2023/07/27 10:47:57;;;;;;;3.67;2.73;;;23.20;61.40;;;;;;5051062;28;20465;-46
2023/07/27 10:50:23;;;;;;;2.93;2.50;;;23.30;59.80;;;;;;5050651;28;20457;-45
2023/07/27 10:52:53;;;;;;;3.43;2.40;;;23.30;59.00;;;;;;5050209;28;20837;-45
2023/07/27 10:55:22;;;;;;;3.00;2.50;;;23.30;57.70;;;;;;5049983;28;20435;-47
2023/07/27 10:57:48;;;;;;;3.50;2.63;;;23.30;57.90;;;;;;5050637;28;20533;-44
2023/07/27 11:00:14;;;;;;;3.13;2.40;;;23.30;57.50;;;;;;5050600;28;20625;-47
2023/07/27 11:02:44;;;;;;;3.10;2.20;;;23.30;57.90;;;;;;5050950;28;20196;-49
2023/07/27 11:05:12;;;;;;;6.17;2.47;;;23.30;57.40;;;;;;5050296;28;20435;-46
2023/07/27 11:07:46;;;;;;;2.70;2.27;;;23.20;57.50;;;;;;5050886;28;20902;-47
2023/07/27 11:10:13;;;;;;;5.00;2.37;;;23.30;57.70;;;;;;5050545;28;20434;-49
2023/07/27 11:12:50;;;;;;;4.47;2.77;;;23.20;56.60;;;;;;5051015;28;20655;-50
2023/07/27 11:15:22;;;;;;;3.33;2.40;;;23.10;57.70;;;;;;5049972;28;20840;-50
2023/07/27 11:17:49;;;;;;;5.20;2.97;;;23.30;57.70;;;;;;5050635;28;20489;-47
2023/07/27 11:20:18;;;;;;;2.40;2.20;;;23.50;57.60;;;;;;5048671;28;20577;-50
2023/07/27 11:22:44;;;;;;;3.90;2.80;;;23.70;57.50;;;;;;5051070;28;20549;-50
2023/07/27 11:25:10;;;;;;;3.77;2.67;;;23.70;56.70;;;;;;5050730;28;20438;-48
2023/07/27 11:27:37;;;;;;;2.83;2.53;;;23.60;56.30;;;;;;5050583;28;20442;-49
2023/07/27 11:30:06;;;;;;;4.17;2.90;;;23.50;56.10;;;;;;5053242;28;20419;-49
2023/07/27 11:32:32;;;;;;;3.17;2.83;;;23.50;55.30;;;;;;5054675;28;20446;-50
2023/07/27 11:34:57;;;;;;;3.50;3.20;;;23.40;55.80;;;;;;5054182;28;20419;-49
2023/07/27 11:37:26;;;;;;;3.50;3.03;;;23.50;56.10;;;;;;5054257;28;20196;-49
2023/07/27 11:39:52;;;;;;;2.60;2.40;;;23.60;56.30;;;;;;5053494;28;20232;-49
2023/07/27 11:42:34;;;;;;;4.90;2.60;;;23.70;56.40;;;;;;5054441;28;20423;-47
2023/07/27 11:44:59;;;;;;;3.57;2.33;;;23.60;55.80;;;;;;5053802;28;20722;-45
2023/07/27 11:47:26;;;;;;;5.17;3.00;;;23.70;55.60;;;;;;5052214;28;20426;-45
2023/07/27 11:49:53;;;;;;;3.93;2.30;;;23.90;56.00;;;;;;5053290;28;20645;-44
2023/07/27 11:52:20;;;;;;;2.70;2.37;;;24.00;55.30;;;;;;5054155;28;20488;-45
2023/07/27 11:54:51;;;;;;;3.90;2.30;;;24.00;54.70;;;;;;5053804;28;20434;-45
2023/07/27 11:57:17;;;;;;;5.40;2.10;;;23.90;54.90;;;;;;5053526;28;20445;-45
2023/07/27 11:59:57;;;;;;;3.70;2.20;;;24.00;53.90;;;;;;5054127;28;20985;-45
2023/07/27 12:02:23;;;;;;;3.57;2.23;;;24.10;54.80;;;;;;5054116;28;20228;-45
2023/07/27 12:04:49;;;;;;;3.90;2.30;;;24.20;54.50;;;;;;5053655;28;20434;-45
2023/07/27 12:07:14;;;;;;;3.20;2.30;;;24.30;55.10;;;;;;5053255;28;20199;-45
2023/07/27 12:09:41;;;;;;;3.20;2.20;;;24.30;55.40;;;;;;5053920;28;20271;-48
2023/07/27 12:12:09;;;;;;;3.33;2.27;;;24.10;55.40;;;;;;5053118;28;20192;-45
2023/07/27 12:14:35;;;;;;;4.33;2.77;;;24.00;57.00;;;;;;5053882;28;21319;-48
2023/07/27 12:17:09;;;;;;;3.33;2.20;;;24.20;57.20;;;;;;5052438;28;20443;-48
2023/07/27 12:19:34;;;;;;;5.10;2.80;;;24.40;57.40;;;;;;5053556;28;20475;-51
2023/07/27 12:22:00;;;;;;;4.47;2.20;;;24.50;57.50;;;;;;5053266;28;20431;-49
2023/07/27 12:24:25;;;;;;;4.47;2.30;;;24.50;57.30;;;;;;5053733;28;20189;-46
2023/07/27 12:26:51;;;;;;;2.63;2.43;;;24.50;56.90;;;;;;5052614;28;20197;-49
2023/07/27 12:29:17;;;;;;;2.33;2.07;;;24.40;56.90;;;;;;5053525;28;20766;-48
2023/07/27 12:31:42;;;;;;;3.90;2.63;;;24.40;57.00;;;;;;5052990;28;20262;-49
2023/07/27 12:34:08;;;;;;;2.73;2.53;;;24.40;57.70;;;;;;5053335;28;20193;-46
2023/07/27 12:36:33;;;;;;;3.07;2.20;;;24.50;57.80;;;;;;5052462;28;20580;-45
2023/07/27 12:38:59;;;;;;;4.47;2.23;;;24.40;57.80;;;;;;5053600;28;20211;-47
2023/07/27 12:41:24;;;;;;;2.60;2.40;;;24.40;58.50;;;;;;5050182;28;20203;-49
2023/07/27 12:43:50;;;;;;;3.00;2.40;;;24.40;58.40;;;;;;5053311;28;20192;-46
2023/07/27 12:46:15;;;;;;;2.40;2.20;;;24.40;58.60;;;;;;5052203;28;20192;-45
2023/07/27 12:48:41;;;;;;;2.70;2.23;;;24.30;58.60;;;;;;5053173;28;20204;-44